Time;durP1;ratioP1;P1;durP2;ratioP2;P2;SDS_P1;SDS_P2;PMS_P1;PMS_P2;Temp;Humidity;BMP_temperature;BMP_pressure;BME280_temperature;BME280_humidity;BME280_pressure;Samples;Min_cycle;Max_cycle;Signal;HPM_P1;HPM_P2
2021/08/26 00:00:32;;;;;;;4.80;3.40;;;;;;;13.64;83.52;97072.11;116237;1180;58886;-67
2021/08/26 00:05:53;;;;;;;4.10;3.70;;;;;;;13.66;83.46;97069.68;116218;1183;70600;-65
2021/08/26 00:08:23;;;;;;;5.70;3.90;;;;;;;13.67;83.49;97069.56;116252;1182;68763;-67
2021/08/26 00:10:53;;;;;;;4.90;3.80;;;;;;;13.70;83.82;97072.28;116234;1183;68427;-67
2021/08/26 00:13:24;;;;;;;5.50;3.80;;;;;;;13.69;83.51;97069.71;116187;1184;58790;-67
2021/08/26 00:15:55;;;;;;;4.10;3.20;;;;;;;13.71;83.55;97070.95;116240;1183;58682;-68
2021/08/26 00:18:25;;;;;;;4.20;3.00;;;;;;;13.71;83.51;97064.77;116266;1182;70530;-66
2021/08/26 00:20:55;;;;;;;;;;;;;;;13.73;83.63;97064.78;116243;1183;69076;-66
2021/08/26 00:23:25;;;;;;;5.10;3.70;;;;;;;13.71;83.44;97061.69;116178;1183;69157;-65
2021/08/26 00:25:54;;;;;;;5.30;3.50;;;;;;;13.71;83.35;97062.23;116218;1182;58741;-66
2021/08/26 00:28:25;;;;;;;6.10;3.60;;;;;;;13.71;83.26;97059.05;116224;1183;58733;-68
2021/08/26 00:30:55;;;;;;;6.10;4.90;;;;;;;13.69;83.56;97066.59;116253;1182;70881;-67
2021/08/26 00:33:24;;;;;;;;;;;;;;;13.65;84.09;97066.04;116252;1183;69161;-67
2021/08/26 00:35:54;;;;;;;6.90;5.30;;;;;;;13.61;84.66;97062.79;116189;1183;68238;-67
2021/08/26 00:38:25;;;;;;;8.60;5.50;;;;;;;13.55;85.36;97058.23;116267;1183;58734;-67
2021/08/26 00:40:59;;;;;;;6.20;3.90;;;;;;;13.54;85.36;97055.42;116220;1178;58706;-67
2021/08/26 00:43:31;;;;;;;5.40;3.10;;;;;;;13.53;84.79;97052.27;116280;1182;69905;-67
2021/08/26 00:46:02;;;;;;;5.70;4.10;;;;;;;13.53;84.21;97047.54;116399;1178;69164;-67
2021/08/26 00:48:32;;;;;;;;;;;;;;;13.53;84.87;97044.39;116222;1183;68410;-65
2021/08/26 00:51:02;;;;;;;4.90;3.30;;;;;;;13.53;84.49;97041.98;116296;1180;58776;-67
2021/08/26 00:53:32;;;;;;;8.20;5.60;;;;;;;13.53;84.30;97040.80;116199;1184;58757;-67
2021/08/26 00:56:01;;;;;;;6.40;4.70;;;;;;;13.50;85.64;97038.59;116418;1182;70514;-67
2021/08/26 00:58:31;;;;;;;5.90;4.50;;;;;;;13.48;85.49;97038.23;116231;1182;68399;-65
2021/08/26 01:01:03;;;;;;;5.10;4.20;;;;;;;13.47;85.16;97035.50;116329;1182;69104;-67
2021/08/26 01:04:03;;;;;;;4.20;2.60;;;;;;;13.47;84.45;97033.77;116223;1183;58728;-66
2021/08/26 01:06:56;;;;;;;4.30;3.40;;;;;;;13.48;84.06;97032.78;116467;1181;58722;-67
2021/08/26 01:09:32;;;;;;;7.10;5.10;;;;;;;13.48;84.15;97030.98;116271;1184;69477;-67
2021/08/26 01:12:03;;;;;;;5.30;4.10;;;;;;;13.48;84.46;97027.40;116254;1182;68662;-68
2021/08/26 01:14:35;;;;;;;4.90;3.00;;;;;;;13.47;84.06;97028.83;116265;1182;68243;-68
2021/08/26 01:17:05;;;;;;;3.20;2.50;;;;;;;13.48;83.61;97030.18;116241;1184;58749;-67
2021/08/26 01:19:35;;;;;;;3.50;2.80;;;;;;;13.49;83.30;97028.49;116224;1178;58721;-65
2021/08/26 01:22:04;;;;;;;3.60;3.00;;;;;;;13.49;83.35;97026.59;116323;1183;70439;-67
2021/08/26 01:24:36;;;;;;;5.20;3.40;;;;;;;13.49;83.05;97023.57;116311;1182;68338;-66
2021/08/26 01:27:06;;;;;;;4.90;4.00;;;;;;;13.50;83.24;97024.41;116192;1179;68375;-66
2021/08/26 01:29:36;;;;;;;4.70;3.80;;;;;;;13.49;83.17;97018.83;116220;1179;58805;-67
2021/08/26 01:32:07;;;;;;;4.40;3.30;;;;;;;13.49;83.14;97021.49;116205;1183;59090;-67
2021/08/26 01:34:37;;;;;;;5.40;3.70;;;;;;;13.48;83.02;97024.84;116478;1180;70547;-67
2021/08/26 01:37:08;;;;;;;5.10;3.30;;;;;;;13.48;83.20;97024.84;116285;1182;69142;-67
2021/08/26 01:39:47;;;;;;;6.30;4.70;;;;;;;13.49;83.41;97024.33;116249;1182;69232;-67
2021/08/26 01:42:17;;;;;;;6.50;5.10;;;;;;;13.47;84.21;97021.84;116394;1180;59094;-67
2021/08/26 01:44:47;;;;;;;6.80;5.00;;;;;;;13.44;84.95;97017.75;116401;1180;58747;-68
2021/08/26 01:47:22;;;;;;;6.50;5.10;;;;;;;13.42;84.76;97017.23;116195;1183;69741;-66
2021/08/26 01:49:54;;;;;;;4.10;3.30;;;;;;;13.41;84.86;97014.30;116209;1183;68422;-68
2021/08/26 01:52:27;;;;;;;5.80;4.00;;;;;;;13.42;84.47;97012.48;116206;1181;67453;-68
2021/08/26 01:55:00;;;;;;;4.40;3.00;;;;;;;13.44;84.18;97016.86;116272;1182;58740;-68
2021/08/26 01:57:34;;;;;;;4.00;3.50;;;;;;;13.46;83.54;97014.96;116197;1182;58739;-68
2021/08/26 02:00:07;;;;;;;5.30;3.50;;;;;;;13.47;83.70;97014.13;116236;1183;69782;-67
2021/08/26 02:02:37;;;;;;;7.00;4.10;;;;;;;13.48;83.73;97015.06;116274;1179;69149;-67
2021/08/26 02:05:08;;;;;;;6.70;4.10;;;;;;;13.49;84.25;97016.39;116287;1181;69274;-67
2021/08/26 02:07:47;;;;;;;4.60;2.90;;;;;;;13.49;84.26;97017.42;116238;1179;58695;-68
2021/08/26 02:10:18;;;;;;;7.10;4.90;;;;;;;13.50;83.99;97018.24;116366;1180;58717;-67
2021/08/26 02:12:49;;;;;;;9.00;5.90;;;;;;;13.48;84.96;97016.66;116247;1183;69755;-64
2021/08/26 02:15:19;;;;;;;9.60;6.10;;;;;;;13.47;85.75;97019.44;116225;1182;68310;-65
2021/08/26 02:17:49;;;;;;;6.60;4.80;;;;;;;13.42;86.42;97020.56;116209;1183;69206;-67
2021/08/26 02:20:19;;;;;;;4.70;3.40;;;;;;;13.43;85.18;97024.13;116232;1183;58691;-67
2021/08/26 02:22:50;;;;;;;5.00;3.30;;;;;;;13.44;84.27;97021.25;116240;1182;58801;-66
2021/08/26 02:25:20;;;;;;;3.80;3.20;;;;;;;13.45;83.98;97019.59;116248;1179;70558;-66
2021/08/26 02:27:51;;;;;;;5.00;3.40;;;;;;;13.46;83.78;97020.02;116233;1181;68994;-66
2021/08/26 02:30:21;;;;;;;3.90;2.90;;;;;;;13.46;83.54;97019.98;116248;1183;68259;-67
2021/08/26 02:32:51;;;;;;;4.60;3.30;;;;;;;13.48;83.47;97018.83;116242;1182;58778;-67
2021/08/26 02:35:20;;;;;;;;;;;;;;;13.49;83.14;97020.27;116289;1182;58689;-67
2021/08/26 02:37:50;;;;;;;;;;;;;;;13.49;83.11;97016.94;116237;1185;70352;-67
2021/08/26 02:40:21;;;;;;;5.70;3.40;;;;;;;13.48;83.23;97018.10;116282;1178;67428;-68
2021/08/26 02:42:51;;;;;;;;;;;;;;;13.48;83.24;97021.06;116246;1183;68224;-68
2021/08/26 02:45:22;;;;;;;5.00;3.70;;;;;;;13.45;84.29;97022.34;116244;1180;58756;-67
2021/08/26 02:47:54;;;;;;;7.10;4.80;;;;;;;13.44;83.85;97021.09;116222;1183;58727;-67
2021/08/26 02:50:24;;;;;;;5.30;4.00;;;;;;;13.42;83.69;97018.77;116230;1181;69771;-67
2021/08/26 02:52:54;;;;;;;6.00;4.40;;;;;;;13.41;83.64;97015.88;116233;1184;68601;-67
2021/08/26 02:55:24;;;;;;;;;;;;;;;13.42;83.27;97017.36;116240;1183;69039;-66
2021/08/26 02:57:54;;;;;;;7.70;4.80;;;;;;;13.44;82.93;97018.44;116257;1182;58740;-67
2021/08/26 03:00:24;;;;;;;4.90;3.70;;;;;;;13.44;82.66;97014.75;116250;1182;58798;-66
2021/08/26 03:02:55;;;;;;;7.70;5.60;;;;;;;13.45;82.59;97015.23;116203;1183;70559;-66
2021/08/26 03:05:25;;;;;;;8.00;5.40;;;;;;;13.45;82.60;97016.27;116272;1184;67716;-67
2021/08/26 03:08:00;;;;;;;9.50;7.50;;;;;;;13.45;82.80;97010.12;116290;1182;68414;-66
2021/08/26 03:10:31;;;;;;;9.20;6.40;;;;;;;13.44;83.94;97011.98;116325;1182;59188;-66
2021/08/26 03:13:00;;;;;;;13.20;9.50;;;;;;;13.41;83.79;97008.36;116238;1183;58794;-66
2021/08/26 03:15:31;;;;;;;14.90;10.60;;;;;;;13.37;85.22;97008.75;116350;1182;69451;-67
2021/08/26 03:18:01;;;;;;;12.80;9.40;;;;;;;13.32;85.59;97008.50;116277;1182;68124;-67
2021/08/26 03:20:31;;;;;;;13.70;10.60;;;;;;;13.30;85.91;97009.77;116280;1181;69252;-69
2021/08/26 03:23:01;;;;;;;14.30;11.20;;;;;;;13.27;86.12;97008.67;116327;1182;58694;-68
2021/08/26 03:25:31;;;;;;;10.30;7.80;;;;;;;13.23;86.23;97006.81;116350;1181;58748;-69
2021/08/26 03:28:01;;;;;;;8.60;5.60;;;;;;;13.25;85.37;97007.91;116207;1182;70695;-67
2021/08/26 03:30:31;;;;;;;10.60;7.50;;;;;;;13.27;84.64;97008.67;116326;1181;68235;-68
2021/08/26 03:33:01;;;;;;;9.40;7.10;;;;;;;13.29;84.23;97009.88;116367;1181;69021;-68
2021/08/26 03:35:31;;;;;;;6.60;5.40;;;;;;;13.30;84.17;97010.98;116309;1182;58748;-68
2021/08/26 03:38:00;;;;;;;9.10;6.50;;;;;;;13.32;84.06;97011.81;116299;1182;58724;-69
2021/08/26 03:40:32;;;;;;;7.40;5.50;;;;;;;13.33;84.09;97014.02;116252;1182;69884;-70
2021/08/26 03:43:02;;;;;;;8.10;6.70;;;;;;;13.34;83.91;97015.70;116407;1181;68451;-66
2021/08/26 03:45:32;;;;;;;6.10;5.20;;;;;;;13.35;83.79;97016.48;116208;1185;69224;-67
2021/08/26 03:48:02;;;;;;;;;;;;;;;13.37;83.91;97015.46;116363;1181;58743;-67
2021/08/26 03:50:32;;;;;;;7.40;4.90;;;;;;;13.37;83.87;97012.95;116404;1182;58715;-68
2021/08/26 03:53:02;;;;;;;6.10;5.20;;;;;;;13.39;83.66;97012.44;116343;1179;69597;-66
2021/08/26 03:55:32;;;;;;;7.60;4.70;;;;;;;13.39;83.73;97014.16;116391;1181;69168;-67
2021/08/26 03:58:02;;;;;;;6.10;4.60;;;;;;;13.40;83.52;97017.58;116255;1181;68307;-67
2021/08/26 04:00:31;;;;;;;;;;;;;;;13.42;83.53;97016.04;116374;1179;58753;-68
2021/08/26 04:03:01;;;;;;;8.90;5.90;;;;;;;13.41;83.68;97018.18;116269;1182;58737;-67
2021/08/26 04:05:31;;;;;;;10.80;7.30;;;;;;;13.40;84.17;97017.78;116402;1181;70406;-67
2021/08/26 04:08:01;;;;;;;9.90;8.30;;;;;;;13.38;84.89;97019.88;116400;1181;69040;-66
2021/08/26 04:10:32;;;;;;;11.10;8.40;;;;;;;13.35;85.98;97017.30;116367;1181;69170;-64
2021/08/26 04:13:01;;;;;;;13.90;9.80;;;;;;;13.36;86.10;97017.61;116389;1178;58765;-65
2021/08/26 04:15:30;;;;;;;15.00;11.50;;;;;;;13.34;86.28;97020.89;116260;1177;58704;-64
2021/08/26 04:18:01;;;;;;;12.90;10.40;;;;;;;13.34;86.61;97022.70;116315;1183;69936;-65
2021/08/26 04:20:30;;;;;;;14.40;10.20;;;;;;;13.33;86.63;97021.58;116301;1182;69187;-67
2021/08/26 04:23:04;;;;;;;10.60;8.20;;;;;;;13.34;86.44;97025.52;116199;1181;68436;-66
2021/08/26 04:25:34;;;;;;;14.50;10.00;;;;;;;13.37;86.21;97026.30;116487;1181;58740;-68
2021/08/26 04:28:04;;;;;;;11.10;8.60;;;;;;;13.38;86.58;97023.58;116209;1183;58773;-65
2021/08/26 04:30:34;;;;;;;10.20;7.80;;;;;;;13.40;86.08;97027.40;116139;1184;69896;-67
2021/08/26 04:33:05;;;;;;;9.60;7.50;;;;;;;13.43;86.12;97028.83;116301;1181;68657;-67
2021/08/26 04:35:39;;;;;;;14.00;10.50;;;;;;;13.44;87.00;97030.49;116189;1182;68405;-64
2021/08/26 04:38:09;;;;;;;9.10;7.50;;;;;;;13.41;86.48;97026.21;116209;1181;58728;-65
2021/08/26 04:40:39;;;;;;;6.20;5.60;;;;;;;13.45;85.81;97028.88;116306;1179;58697;-67
2021/08/26 04:43:09;;;;;;;8.10;5.80;;;;;;;13.49;85.26;97029.16;116290;1185;70996;-67
2021/08/26 04:45:38;;;;;;;6.70;5.40;;;;;;;13.53;85.17;97030.10;116341;1182;69566;-67
2021/08/26 04:48:08;;;;;;;6.60;4.40;;;;;;;13.58;84.67;97034.52;116219;1181;67694;-63
2021/08/26 04:50:37;;;;;;;6.30;4.20;;;;;;;13.64;84.47;97032.91;116368;1181;58725;-67
2021/08/26 04:53:07;;;;;;;6.00;4.10;;;;;;;13.70;84.38;97035.67;116237;1180;58720;-68
2021/08/26 04:55:37;;;;;;;6.10;4.10;;;;;;;13.78;84.03;97032.90;116315;1181;70102;-67
2021/08/26 04:58:06;;;;;;;5.40;3.90;;;;;;;13.85;83.76;97034.71;116350;1181;68373;-67
2021/08/26 05:00:36;;;;;;;6.50;5.40;;;;;;;13.92;83.57;97031.92;116346;1182;68581;-67
2021/08/26 05:03:06;;;;;;;7.00;5.20;;;;;;;13.99;83.52;97030.40;116243;1182;58763;-66
2021/08/26 05:05:36;;;;;;;5.20;3.80;;;;;;;14.05;83.26;97025.14;116289;1181;58757;-68
2021/08/26 05:08:05;;;;;;;6.30;4.70;;;;;;;14.11;83.15;97026.27;116519;1180;69606;-65
2021/08/26 05:10:38;;;;;;;6.70;5.20;;;;;;;14.15;82.84;97027.02;116214;1179;68588;-68
2021/08/26 05:13:09;;;;;;;6.60;4.90;;;;;;;14.19;82.85;97026.23;116223;1181;68544;-68
2021/08/26 05:15:39;;;;;;;7.80;5.00;;;;;;;14.25;82.64;97023.38;116365;1181;58749;-68
2021/08/26 05:18:08;;;;;;;7.90;5.00;;;;;;;14.32;82.72;97018.92;116393;1183;58814;-67
2021/08/26 05:20:37;;;;;;;6.10;4.80;;;;;;;14.39;82.46;97023.49;116415;1181;69805;-66
2021/08/26 05:23:06;;;;;;;8.50;5.10;;;;;;;14.46;82.35;97024.44;116313;1182;69349;-69
2021/08/26 05:25:36;;;;;;;7.80;5.30;;;;;;;14.52;82.26;97025.30;116410;1181;69306;-66
2021/08/26 05:28:05;;;;;;;6.00;4.50;;;;;;;14.56;81.31;97025.09;116172;1183;58747;-66
2021/08/26 05:30:37;;;;;;;7.20;5.50;;;;;;;14.63;81.45;97027.08;116391;1178;58739;-70
2021/08/26 05:33:06;;;;;;;7.30;5.90;;;;;;;14.70;80.55;97028.96;116375;1181;69868;-66
2021/08/26 05:35:36;;;;;;;9.40;7.00;;;;;;;14.73;79.53;97032.36;116127;1184;68563;-66
2021/08/26 05:38:06;;;;;;;;;;;;;;;14.84;79.88;97030.63;116140;1184;68325;-67
2021/08/26 05:40:35;;;;;;;10.90;7.80;;;;;;;14.94;79.69;97035.96;116171;1181;58757;-66
2021/08/26 05:43:04;;;;;;;8.30;7.30;;;;;;;15.04;78.90;97039.03;116190;1183;58672;-67
2021/08/26 05:45:33;;;;;;;12.40;9.20;;;;;;;15.10;78.28;97040.73;116166;1184;70584;-66
2021/08/26 05:48:03;;;;;;;14.10;10.00;;;;;;;15.17;77.93;97040.99;116215;1182;69834;-64
2021/08/26 05:50:32;;;;;;;13.30;9.60;;;;;;;15.18;76.81;97042.89;116123;1178;68626;-65
2021/08/26 05:53:02;;;;;;;11.90;8.90;;;;;;;15.22;76.45;97041.88;116117;1184;58693;-65
2021/08/26 05:55:31;;;;;;;12.50;9.30;;;;;;;15.24;75.80;97044.52;116118;1183;58736;-67
2021/08/26 05:58:00;;;;;;;12.80;9.70;;;;;;;15.28;76.32;97043.71;116244;1181;68891;-69
2021/08/26 06:00:30;;;;;;;9.30;8.00;;;;;;;15.33;76.43;97043.63;116223;1183;68528;-66
2021/08/26 06:02:59;;;;;;;9.00;6.70;;;;;;;15.46;76.45;97041.64;116290;1180;69673;-65
2021/08/26 06:05:28;;;;;;;7.10;5.80;;;;;;;15.62;76.04;97039.40;116270;1182;58688;-68
2021/08/26 06:07:58;;;;;;;8.80;6.00;;;;;;;15.75;74.77;97043.84;116136;1179;58717;-68
2021/08/26 06:10:27;;;;;;;7.00;5.40;;;;;;;15.89;74.48;97044.45;116186;1182;70821;-65
2021/08/26 06:12:55;;;;;;;7.30;4.90;;;;;;;16.02;73.80;97042.77;116169;1182;69549;-67
2021/08/26 06:15:25;;;;;;;5.90;4.60;;;;;;;16.19;73.46;97041.52;116185;1185;69357;-65
2021/08/26 06:17:54;;;;;;;5.80;3.80;;;;;;;16.43;73.16;97037.65;116361;1181;58973;-65
2021/08/26 06:20:28;;;;;;;5.60;3.70;;;;;;;16.76;71.50;97036.90;116293;1181;58720;-66
2021/08/26 06:22:57;;;;;;;5.90;3.90;;;;;;;17.02;71.13;97041.09;116308;1181;70580;-64
2021/08/26 06:25:26;;;;;;;7.30;5.00;;;;;;;17.28;70.11;97045.04;116083;1184;69765;-65
2021/08/26 06:27:56;;;;;;;6.70;4.40;;;;;;;17.61;67.05;97044.69;116113;1181;68999;-65
2021/08/26 06:30:26;;;;;;;4.70;3.50;;;;;;;17.82;66.52;97044.79;116190;1182;58790;-65
2021/08/26 06:32:56;;;;;;;4.60;3.40;;;;;;;18.19;66.55;97047.46;116163;1182;59191;-69
2021/08/26 06:35:25;;;;;;;;;;;;;;;18.72;65.40;97045.59;116051;1179;70413;-70
2021/08/26 06:37:54;;;;;;;6.00;3.50;;;;;;;19.53;63.28;97047.20;116263;1179;69437;-65
2021/08/26 06:40:23;;;;;;;5.70;3.40;;;;;;;20.33;61.21;97044.23;116201;1182;68813;-66
2021/08/26 06:42:52;;;;;;;4.00;3.00;;;;;;;20.79;61.59;97043.56;116249;1181;58756;-65
2021/08/26 06:45:21;;;;;;;5.90;4.00;;;;;;;20.99;59.82;97042.63;116334;1181;58739;-65
2021/08/26 06:47:50;;;;;;;4.10;3.20;;;;;;;21.06;56.44;97043.16;116327;1181;70628;-65
2021/08/26 06:50:20;;;;;;;4.70;3.10;;;;;;;20.91;56.09;97045.50;116287;1178;69892;-65
2021/08/26 06:52:49;;;;;;;4.00;2.70;;;;;;;20.56;55.68;97042.27;116254;1180;68552;-68
2021/08/26 06:55:18;;;;;;;4.90;3.10;;;;;;;20.49;56.31;97040.05;116311;1180;58726;-69
2021/08/26 06:57:47;;;;;;;4.50;3.50;;;;;;;20.33;55.47;97046.06;116320;1181;58669;-66
2021/08/26 07:00:16;;;;;;;4.90;3.50;;;;;;;20.11;56.01;97046.85;116170;1181;69125;-65
2021/08/26 07:02:46;;;;;;;5.60;3.60;;;;;;;20.29;54.05;97044.71;116337;1179;68198;-64
2021/08/26 07:05:16;;;;;;;5.80;3.70;;;;;;;20.62;53.33;97040.80;116306;1178;68725;-66
2021/08/26 07:07:45;;;;;;;5.50;4.30;;;;;;;21.15;50.59;97037.09;116133;1181;59177;-65
2021/08/26 07:10:15;;;;;;;4.60;3.00;;;;;;;21.66;51.42;97036.80;116113;1182;58730;-65
2021/08/26 07:12:44;;;;;;;3.90;2.80;;;;;;;22.06;50.61;97034.49;116178;1181;69924;-65
2021/08/26 07:15:13;;;;;;;3.90;2.60;;;;;;;22.40;50.76;97035.77;116172;1182;69202;-66
2021/08/26 07:17:42;;;;;;;5.70;3.70;;;;;;;22.37;50.17;97039.03;116176;1181;69173;-65
2021/08/26 07:20:12;;;;;;;5.10;2.60;;;;;;;22.12;50.61;97034.95;116146;1178;59104;-65
2021/08/26 07:22:42;;;;;;;4.70;3.70;;;;;;;22.23;48.97;97033.31;116157;1181;58666;-65
2021/08/26 07:25:11;;;;;;;3.60;3.10;;;;;;;22.50;45.66;97030.67;116231;1181;69453;-66
2021/08/26 07:27:40;;;;;;;5.30;3.70;;;;;;;23.02;46.65;97026.70;116188;1181;69210;-65
2021/08/26 07:30:10;;;;;;;4.50;3.10;;;;;;;22.75;45.63;97023.23;116223;1179;69896;-69
2021/08/26 07:32:39;;;;;;;;;;;;;;;23.49;46.10;97027.33;116380;1181;58780;-64
2021/08/26 07:35:09;;;;;;;4.10;2.30;;;;;;;24.01;46.65;97031.27;116259;1181;58692;-65
2021/08/26 07:37:39;;;;;;;4.80;3.00;;;;;;;23.90;45.55;97030.41;116313;1181;69761;-66
2021/08/26 07:40:10;;;;;;;;;;;;;;;23.72;45.79;97029.70;116225;1181;68411;-68
2021/08/26 07:42:40;;;;;;;4.50;2.90;;;;;;;23.48;46.10;97029.39;116168;1182;68306;-65
2021/08/26 07:45:10;;;;;;;3.20;2.50;;;;;;;23.21;46.28;97025.17;116176;1181;58745;-65
2021/08/26 07:47:40;;;;;;;4.30;2.90;;;;;;;22.96;46.90;97022.73;116277;1181;58759;-65
2021/08/26 07:50:10;;;;;;;4.50;3.00;;;;;;;22.80;46.17;97020.46;116252;1181;70553;-65
2021/08/26 07:52:39;;;;;;;3.90;2.50;;;;;;;22.74;46.22;97014.91;116199;1181;69862;-66
2021/08/26 07:55:09;;;;;;;3.70;2.50;;;;;;;22.84;47.51;97017.30;116273;1178;69029;-68
2021/08/26 07:57:38;;;;;;;4.10;3.00;;;;;;;22.93;46.97;97011.94;116246;1179;58705;-65
2021/08/26 08:00:08;;;;;;;5.20;3.50;;;;;;;22.88;46.80;97020.02;116201;1181;58737;-65
2021/08/26 08:02:37;;;;;;;5.70;3.00;;;;;;;22.77;45.95;97018.77;116216;1181;71209;-65
2021/08/26 08:05:08;;;;;;;5.20;2.70;;;;;;;22.64;46.74;97017.89;116202;1178;68406;-67
2021/08/26 08:07:42;;;;;;;3.40;2.00;;;;;;;22.59;46.80;97019.10;116216;1181;69358;-66
2021/08/26 08:10:14;;;;;;;8.00;4.20;;;;;;;22.52;45.73;97014.17;116181;1181;59176;-66
2021/08/26 08:12:43;;;;;;;4.40;3.20;;;;;;;22.61;45.99;97012.66;116315;1182;58782;-65
2021/08/26 08:15:13;;;;;;;4.50;3.10;;;;;;;22.52;43.91;97009.55;116188;1181;69882;-64
2021/08/26 08:17:42;;;;;;;5.70;3.80;;;;;;;21.92;44.24;97007.46;116306;1178;68662;-66
2021/08/26 08:20:11;;;;;;;8.00;4.00;;;;;;;21.32;45.97;97003.41;116373;1176;69074;-66
2021/08/26 08:22:41;;;;;;;6.20;3.50;;;;;;;21.92;45.20;97003.63;116282;1181;58748;-66
2021/08/26 08:25:10;;;;;;;3.80;3.10;;;;;;;22.66;44.18;97006.30;116266;1181;58713;-65
2021/08/26 08:27:40;;;;;;;5.90;3.70;;;;;;;23.08;42.39;97000.23;116237;1181;70544;-65
2021/08/26 08:30:10;;;;;;;;;;;;;;;23.24;42.56;97000.52;116273;1181;69413;-64
2021/08/26 08:32:40;;;;;;;3.80;2.50;;;;;;;23.71;41.92;97008.05;116193;1181;68401;-66
2021/08/26 08:35:09;;;;;;;3.40;2.30;;;;;;;23.98;42.25;97011.80;116238;1181;58711;-65
2021/08/26 08:37:38;;;;;;;4.70;3.10;;;;;;;24.21;42.26;97007.06;116128;1180;58708;-65
2021/08/26 08:40:08;;;;;;;3.10;2.20;;;;;;;24.63;42.25;96997.31;116214;1181;70545;-65
2021/08/26 08:42:37;;;;;;;3.90;2.90;;;;;;;25.17;41.73;96997.27;116247;1181;69134;-65
2021/08/26 08:45:06;;;;;;;;;;;;;;;25.60;39.95;96994.50;116231;1181;69234;-65
2021/08/26 08:47:37;;;;;;;4.70;2.90;;;;;;;25.50;39.79;96994.41;116214;1181;58718;-66
2021/08/26 08:50:07;;;;;;;5.50;3.20;;;;;;;25.78;39.08;96996.24;116153;1182;58780;-68
2021/08/26 08:52:38;;;;;;;4.40;3.00;;;;;;;26.10;37.85;96992.36;116190;1179;69753;-68
2021/08/26 08:55:11;;;;;;;5.40;2.80;;;;;;;26.16;36.06;96992.75;116296;1181;68635;-67
2021/08/26 08:57:42;;;;;;;4.80;3.40;;;;;;;26.10;35.70;96984.96;116314;1178;68222;-67
2021/08/26 09:00:14;;;;;;;4.30;3.00;;;;;;;26.67;35.14;96982.50;116229;1178;58755;-66
2021/08/26 09:02:44;;;;;;;3.60;2.40;;;;;;;26.96;35.34;96982.55;116324;1179;58701;-66
2021/08/26 09:05:13;;;;;;;5.20;2.90;;;;;;;27.24;35.43;96981.15;116156;1181;70544;-64
2021/08/26 09:07:42;;;;;;;;;;;;;;;26.98;35.04;96984.64;116187;1181;69302;-65
2021/08/26 09:10:13;;;;;;;3.30;2.20;;;;;;;26.73;35.85;96984.80;116230;1182;69136;-65
2021/08/26 09:12:45;;;;;;;4.10;2.70;;;;;;;26.34;36.22;96983.89;116218;1181;58697;-65
2021/08/26 09:15:17;;;;;;;3.70;2.50;;;;;;;25.91;35.49;96980.73;116203;1181;58693;-66
2021/08/26 09:17:50;;;;;;;4.00;2.60;;;;;;;25.55;37.24;96975.30;116207;1181;70396;-65
2021/08/26 09:20:20;;;;;;;4.10;2.70;;;;;;;24.87;37.02;96974.27;116236;1180;69005;-65
2021/08/26 09:22:49;;;;;;;4.80;2.80;;;;;;;24.86;38.44;96978.02;116072;1178;69030;-67
2021/08/26 09:25:25;;;;;;;;;;;;;;;24.54;36.21;96980.77;116231;1180;58824;-65
2021/08/26 09:27:54;;;;;;;4.40;2.60;;;;;;;24.18;37.67;96980.93;116248;1181;58744;-67
2021/08/26 09:30:23;;;;;;;4.10;2.70;;;;;;;24.37;38.86;96972.67;116171;1181;70706;-66
2021/08/26 09:33:00;;;;;;;6.00;3.60;;;;;;;24.72;38.04;96972.85;116183;1181;69040;-67
2021/08/26 09:35:32;;;;;;;4.00;3.20;;;;;;;24.33;37.28;96973.56;116172;1182;69961;-68
2021/08/26 09:38:03;;;;;;;4.60;3.10;;;;;;;24.00;36.81;96974.79;116136;1179;58740;-67
2021/08/26 09:40:46;;;;;;;5.10;2.80;;;;;;;24.72;36.99;96966.42;116153;1182;58728;-65
2021/08/26 09:43:15;;;;;;;4.50;2.40;;;;;;;25.40;36.52;96963.52;116430;1179;70420;-67
2021/08/26 09:45:49;;;;;;;5.60;3.70;;;;;;;26.28;36.47;96963.34;116269;1181;68446;-67
2021/08/26 09:48:19;;;;;;;5.10;3.50;;;;;;;26.65;33.78;96961.64;116209;1181;69107;-66
2021/08/26 09:50:53;;;;;;;5.10;2.50;;;;;;;26.16;32.09;96955.58;116375;1179;58721;-64
2021/08/26 09:53:32;;;;;;;4.20;2.80;;;;;;;27.11;32.64;96953.27;116258;1181;58737;-65
2021/08/26 09:56:06;;;;;;;3.90;2.20;;;;;;;27.02;30.13;96952.73;116310;1181;68827;-67
2021/08/26 09:58:36;;;;;;;3.50;2.40;;;;;;;27.67;30.02;96954.13;116406;1181;67457;-65
2021/08/26 10:01:12;;;;;;;3.60;2.30;;;;;;;28.15;31.10;96947.59;116146;1181;68395;-65
2021/08/26 10:03:42;;;;;;;4.20;2.30;;;;;;;28.87;31.58;96944.27;116277;1182;58725;-66
2021/08/26 10:06:14;;;;;;;3.60;2.40;;;;;;;29.31;31.51;96943.77;116348;1177;58727;-66
2021/08/26 10:08:48;;;;;;;3.30;2.20;;;;;;;29.09;30.19;96940.98;116388;1178;70363;-65
2021/08/26 10:11:20;;;;;;;4.00;2.80;;;;;;;28.97;31.29;96945.23;116218;1181;69200;-64
2021/08/26 10:13:49;;;;;;;4.30;3.20;;;;;;;28.52;30.72;96948.52;116211;1181;69221;-68
2021/08/26 10:16:19;;;;;;;2.90;2.20;;;;;;;27.80;31.04;96951.61;116431;1179;58750;-64
2021/08/26 10:18:54;;;;;;;3.30;2.50;;;;;;;27.32;31.86;96946.91;116221;1181;58722;-65
2021/08/26 10:21:23;;;;;;;7.70;4.50;;;;;;;25.76;32.79;96939.72;116231;1181;69815;-64
2021/08/26 10:23:53;;;;;;;5.60;3.50;;;;;;;24.97;34.28;96940.17;116261;1182;68456;-65
2021/08/26 10:26:23;;;;;;;5.50;3.90;;;;;;;23.60;36.76;96943.14;116234;1181;68437;-65
2021/08/26 10:28:53;;;;;;;5.90;4.20;;;;;;;22.38;38.63;96939.30;116280;1181;58713;-65
2021/08/26 10:31:31;;;;;;;7.70;4.70;;;;;;;21.51;41.29;96944.58;116323;1181;58902;-65
2021/08/26 10:34:23;;;;;;;5.00;4.00;;;;;;;21.48;41.89;96943.69;116228;1181;69986;-64
2021/08/26 10:36:55;;;;;;;6.60;5.00;;;;;;;21.91;42.38;96941.84;116218;1183;68468;-65
2021/08/26 10:39:42;;;;;;;8.20;4.60;;;;;;;21.53;43.26;96942.86;116386;1181;69197;-65
2021/08/26 10:42:28;;;;;;;6.20;4.00;;;;;;;21.54;43.46;96943.67;116304;1178;58710;-64
2021/08/26 10:45:10;;;;;;;6.60;4.20;;;;;;;21.62;42.56;96940.77;116383;1180;58720;-65
2021/08/26 10:47:57;;;;;;;7.80;5.50;;;;;;;21.60;42.95;96946.82;116377;1179;70484;-66
2021/08/26 10:50:35;;;;;;;6.00;4.20;;;;;;;21.55;42.88;96939.11;116286;1181;68222;-67
2021/08/26 10:53:11;;;;;;;4.00;3.00;;;;;;;21.64;43.01;96938.58;116383;1181;68464;-66
2021/08/26 10:55:46;;;;;;;6.90;4.00;;;;;;;21.78;43.23;96939.63;116205;1179;58724;-66
2021/08/26 10:58:24;;;;;;;5.80;3.40;;;;;;;21.79;43.17;96940.66;116201;1181;58728;-66
2021/08/26 11:00:58;;;;;;;5.60;3.00;;;;;;;21.85;43.07;96937.34;116128;1183;71304;-65
2021/08/26 11:03:34;;;;;;;4.80;3.60;;;;;;;21.90;43.08;96941.30;116109;1184;68575;-66
2021/08/26 11:06:16;;;;;;;5.20;3.10;;;;;;;21.87;42.66;96942.36;116184;1181;68274;-65
2021/08/26 11:08:53;;;;;;;6.00;3.30;;;;;;;21.71;42.88;96942.75;116230;1181;59178;-67
2021/08/26 11:11:25;;;;;;;5.40;3.30;;;;;;;21.96;42.61;96938.36;116332;1181;58711;-65
2021/08/26 11:14:03;;;;;;;4.30;2.90;;;;;;;22.21;42.80;96937.86;116284;1181;70014;-67
2021/08/26 11:16:34;;;;;;;5.10;3.80;;;;;;;22.18;42.24;96934.97;116083;1178;67456;-65
2021/08/26 11:19:12;;;;;;;5.00;3.00;;;;;;;22.17;42.20;96932.83;116127;1181;69335;-64
2021/08/26 11:21:42;;;;;;;5.60;3.90;;;;;;;22.30;41.89;96937.77;116233;1181;58737;-65
2021/08/26 11:24:14;;;;;;;5.30;3.40;;;;;;;23.18;41.02;96937.77;116211;1181;58737;-65
2021/08/26 11:27:09;;;;;;;5.00;3.20;;;;;;;24.23;37.71;96936.52;116282;1181;68691;-68
2021/08/26 11:29:42;;;;;;;7.30;5.70;;;;;;;25.13;37.17;96934.05;116271;1181;68242;-71
2021/08/26 11:32:15;;;;;;;6.00;4.00;;;;;;;25.01;36.07;96932.96;116328;1181;69004;-64
2021/08/26 11:34:45;;;;;;;5.30;3.40;;;;;;;24.52;36.91;96935.34;116317;1179;58748;-68
2021/08/26 11:37:20;;;;;;;7.30;4.30;;;;;;;23.97;37.81;96939.67;116295;1181;58733;-65
2021/08/26 11:39:59;;;;;;;5.80;4.10;;;;;;;23.33;39.23;96938.30;116235;1181;70674;-68
2021/08/26 11:42:39;;;;;;;5.60;3.70;;;;;;;23.01;39.49;96937.17;116321;1181;69185;-65
2021/08/26 11:45:20;;;;;;;4.90;3.20;;;;;;;22.63;40.67;96933.59;116262;1182;69342;-69
2021/08/26 11:47:56;;;;;;;4.80;3.60;;;;;;;22.42;41.41;96933.04;116134;1178;58711;-66
2021/08/26 11:50:31;;;;;;;4.60;3.30;;;;;;;22.28;42.07;96930.60;116204;1181;58686;-67